createdAt,value
2023-01-09T00:03:57.443Z,3.80
2023-01-09T00:08:59.624Z,3.80
2023-01-09T00:14:01.568Z,3.90
2023-01-09T00:19:03.477Z,3.80
2023-01-09T00:24:05.956Z,3.80
2023-01-09T00:29:10.916Z,3.70
2023-01-09T00:34:12.875Z,3.70
2023-01-09T00:39:14.940Z,3.60
2023-01-09T00:44:23.259Z,3.50
2023-01-09T00:49:28.136Z,3.40
2023-01-09T00:54:30.789Z,3.30
2023-01-09T00:59:33.069Z,3.10
2023-01-09T01:04:53.470Z,3.00
2023-01-09T01:09:55.399Z,2.80
2023-01-09T01:14:57.284Z,2.60
2023-01-09T01:19:59.164Z,2.60
2023-01-09T01:25:01.070Z,2.50
2023-01-09T01:30:03.273Z,2.30
2023-01-09T01:35:06.512Z,2.20
2023-01-09T01:40:11.368Z,2.10
2023-01-09T01:45:16.411Z,2.00
2023-01-09T01:50:38.501Z,1.90
2023-01-09T01:55:51.319Z,1.90
2023-01-09T02:00:53.774Z,1.80
2023-01-09T02:05:55.869Z,1.90
2023-01-09T02:10:57.895Z,1.80
2023-01-09T02:16:03.573Z,1.80
2023-01-09T02:21:28.982Z,1.50
2023-01-09T02:26:53.069Z,1.60
2023-01-09T02:32:22.386Z,1.60
2023-01-09T02:37:42.496Z,1.60
2023-01-09T02:42:45.640Z,1.40
2023-01-09T02:47:48.283Z,1.30
2023-01-09T02:53:32.660Z,1.30
2023-01-09T02:58:54.744Z,1.30
2023-01-09T03:04:19.464Z,1.10
2023-01-09T03:09:25.006Z,1.00
2023-01-09T03:14:31.144Z,0.60
2023-01-09T03:19:34.683Z,0.60
2023-01-09T03:24:38.811Z,0.60
2023-01-09T03:29:40.789Z,0.60
2023-01-09T03:34:42.828Z,0.70
2023-01-09T03:39:44.704Z,0.80
2023-01-09T03:44:46.597Z,0.80
2023-01-09T03:49:48.576Z,0.90
2023-01-09T03:54:50.480Z,1.00
2023-01-09T03:59:52.378Z,0.90
2023-01-09T04:04:54.302Z,0.90
2023-01-09T04:09:56.381Z,0.70
2023-01-09T04:14:58.259Z,0.90
2023-01-09T04:20:00.273Z,0.90
2023-01-09T04:25:02.245Z,0.90
2023-01-09T04:30:05.225Z,1.00
2023-01-09T04:35:07.763Z,1.00
2023-01-09T04:40:10.811Z,0.90
2023-01-09T04:45:15.399Z,0.80
2023-01-09T04:50:17.459Z,0.80
2023-01-09T04:55:19.353Z,0.80
2023-01-09T05:00:21.372Z,0.90
2023-01-09T05:05:23.390Z,0.70
2023-01-09T05:10:25.276Z,1.00
2023-01-09T05:15:28.365Z,1.10
2023-01-09T05:20:30.334Z,1.20
2023-01-09T05:25:32.251Z,1.30
2023-01-09T05:30:34.134Z,1.50
2023-01-09T05:35:36.137Z,1.60
2023-01-09T05:40:40.441Z,1.70
2023-01-09T05:45:43.631Z,2.20
2023-01-09T05:50:45.809Z,2.20
2023-01-09T05:55:47.748Z,2.50
2023-01-09T06:00:49.698Z,2.60
2023-01-09T06:05:51.844Z,2.60
2023-01-09T06:10:53.746Z,2.70
2023-01-09T06:15:55.640Z,2.60
2023-01-09T06:20:57.564Z,2.60
2023-01-09T06:25:59.469Z,2.90
2023-01-09T06:31:01.487Z,2.90
2023-01-09T06:36:03.652Z,3.00
2023-01-09T06:41:06.322Z,3.00
2023-01-09T06:46:08.401Z,3.00
2023-01-09T06:51:10.372Z,2.80
2023-01-09T06:56:12.309Z,3.00
2023-01-09T07:01:14.415Z,3.20
2023-01-09T07:06:16.404Z,3.30
2023-01-09T07:11:18.309Z,3.40
2023-01-09T07:16:20.263Z,3.50
2023-01-09T07:21:22.642Z,3.50
2023-01-09T07:26:25.700Z,3.60
2023-01-09T07:31:27.774Z,3.60
2023-01-09T07:36:29.760Z,3.60
2023-01-09T07:41:31.725Z,3.60
2023-01-09T07:46:46.674Z,3.60
2023-01-09T07:51:49.988Z,3.60
2023-01-09T07:56:53.075Z,3.50
2023-01-09T08:02:02.722Z,3.50
2023-01-09T08:07:05.658Z,3.70
2023-01-09T08:12:11.433Z,3.80
2023-01-09T08:17:17.405Z,3.80
2023-01-09T08:22:29.615Z,3.90
2023-01-09T08:27:41.632Z,4.00
2023-01-09T08:32:52.118Z,4.20
2023-01-09T08:38:07.185Z,4.20
2023-01-09T08:43:28.361Z,4.30
2023-01-09T08:48:30.263Z,4.40
2023-01-09T08:53:32.237Z,4.50
2023-01-09T08:58:34.977Z,4.40
2023-01-09T09:03:36.922Z,4.60
2023-01-09T09:08:38.947Z,4.80
2023-01-09T09:13:40.902Z,5.00
2023-01-09T09:18:42.823Z,5.00
2023-01-09T09:23:44.786Z,5.40
2023-01-09T09:28:47.274Z,5.60
2023-01-09T09:33:49.172Z,6.00
2023-01-09T09:38:51.056Z,6.20
2023-01-09T09:44:36.255Z,6.30
2023-01-09T09:50:02.683Z,6.30
2023-01-09T09:55:16.657Z,6.40
2023-01-09T10:00:22.267Z,6.50
2023-01-09T10:05:33.115Z,6.90
2023-01-09T10:10:46.852Z,7.20
2023-01-09T10:16:02.965Z,7.40
2023-01-09T10:21:30.922Z,7.60
2023-01-09T10:26:50.292Z,7.90
2023-01-09T10:32:17.764Z,7.90
2023-01-09T10:37:28.934Z,8.00
2023-01-09T10:43:06.529Z,8.10
2023-01-09T11:17:27.459Z,8.60
2023-01-09T11:22:58.532Z,8.40
2023-01-09T11:28:20.880Z,8.40
2023-01-09T11:33:48.986Z,8.80
2023-01-09T11:39:32.994Z,9.00
2023-01-09T11:45:03.260Z,9.10
2023-01-09T11:50:30.675Z,8.80
2023-01-09T11:56:14.366Z,8.80
2023-01-09T12:02:08.145Z,8.80
2023-01-09T12:07:33.442Z,8.70
2023-01-09T12:13:11.885Z,8.80
2023-01-09T12:19:10.033Z,8.70
2023-01-09T12:25:08.576Z,8.40
2023-01-09T12:30:49.477Z,8.20
2023-01-09T12:36:20.343Z,8.20
2023-01-09T12:41:53.369Z,8.00
2023-01-09T12:47:36.522Z,8.00
2023-01-09T12:53:16.727Z,7.80
2023-01-09T12:58:49.489Z,7.80
2023-01-09T13:04:20.467Z,7.60
2023-01-09T13:10:11.414Z,7.50
2023-01-09T13:15:46.246Z,7.60
2023-01-09T13:21:12.510Z,7.40
2023-01-09T13:26:51.333Z,7.30
2023-01-09T13:32:58.570Z,7.50
2023-01-09T13:38:27.474Z,8.00
2023-01-09T13:44:18.759Z,8.40
2023-01-09T13:49:44.107Z,8.70
2023-01-09T13:55:14.900Z,8.80
2023-01-09T14:00:37.684Z,9.00
2023-01-09T14:05:59.821Z,9.10
2023-01-09T14:11:27.254Z,9.20
2023-01-09T14:16:49.636Z,9.20
2023-01-09T14:22:26.973Z,9.20
2023-01-09T14:27:50.264Z,9.20
2023-01-09T14:33:25.846Z,9.20
2023-01-09T14:39:03.740Z,9.20
2023-01-09T14:44:48.851Z,9.10
2023-01-09T14:50:17.346Z,9.10
2023-01-09T14:55:42.510Z,9.00
2023-01-09T15:01:16.061Z,8.90
2023-01-09T15:06:43.170Z,8.70
2023-01-09T15:12:09.354Z,8.50
2023-01-09T15:17:35.253Z,8.80
2023-01-09T15:23:00.612Z,8.80
2023-01-09T15:28:29.650Z,8.70
2023-01-09T15:33:54.017Z,8.70
2023-01-09T15:39:24.183Z,8.60
2023-01-09T15:44:48.852Z,8.50
2023-01-09T15:50:22.491Z,8.50
2023-01-09T15:55:46.560Z,8.40
2023-01-09T16:01:30.407Z,8.20
2023-01-09T16:06:52.990Z,8.10
2023-01-09T16:12:23.591Z,8.00
2023-01-09T16:18:13.854Z,7.90
2023-01-09T16:23:36.236Z,8.00
2023-01-09T16:29:38.169Z,8.00
2023-01-09T16:35:14.481Z,8.00
2023-01-09T16:40:36.690Z,8.10
2023-01-09T16:45:58.966Z,8.00
2023-01-09T16:51:23.093Z,7.90
2023-01-09T16:56:49.003Z,7.70
2023-01-09T17:02:19.942Z,7.70
2023-01-09T17:07:42.219Z,7.70
2023-01-09T17:13:04.386Z,7.80
2023-01-09T17:18:27.623Z,7.80
2023-01-09T17:24:08.840Z,7.70
2023-01-09T17:29:31.422Z,7.50
2023-01-09T17:34:53.609Z,7.60
2023-01-09T17:40:21.305Z,7.70
2023-01-09T17:45:43.593Z,7.70
2023-01-09T17:51:06.000Z,7.60
2023-01-09T17:56:32.771Z,7.50
2023-01-09T18:01:55.103Z,7.50
2023-01-09T18:07:18.102Z,7.60
2023-01-09T18:12:40.288Z,7.50
2023-01-09T18:18:02.493Z,7.50
2023-01-09T18:23:24.769Z,7.60
2023-01-09T18:28:52.840Z,7.60
2023-01-09T18:34:15.049Z,7.50
2023-01-09T18:39:37.353Z,7.40
2023-01-09T18:44:59.549Z,7.40
2023-01-09T18:50:21.809Z,7.40
2023-01-09T18:55:44.048Z,7.30
2023-01-09T19:01:06.376Z,7.20
2023-01-09T19:06:30.654Z,7.20
2023-01-09T19:11:52.833Z,7.20
2023-01-09T19:17:15.583Z,7.20
2023-01-09T19:22:37.835Z,7.20
2023-01-09T19:28:00.397Z,7.10
2023-01-09T19:33:24.440Z,7.10
2023-01-09T19:38:46.825Z,7.00
2023-01-09T19:44:09.539Z,7.10
2023-01-09T19:49:32.409Z,7.20
2023-01-09T19:54:54.675Z,7.10
2023-01-09T20:00:17.057Z,6.90
2023-01-09T20:05:40.500Z,7.00
2023-01-09T20:11:03.873Z,7.00
2023-01-09T20:16:29.092Z,7.00
2023-01-09T20:21:53.075Z,7.00
2023-01-09T20:27:15.682Z,7.10
2023-01-09T20:32:38.351Z,7.00
2023-01-09T20:38:00.554Z,7.00
2023-01-09T20:43:24.103Z,6.70
2023-01-09T20:48:48.751Z,6.80
2023-01-09T20:54:10.988Z,6.70
2023-01-09T20:59:33.202Z,6.60
2023-01-09T21:04:55.400Z,6.80
2023-01-09T21:10:17.851Z,6.80
2023-01-09T21:15:40.178Z,6.70
2023-01-09T21:21:14.197Z,6.70
2023-01-09T21:26:36.440Z,6.70
2023-01-09T21:31:58.851Z,6.80
2023-01-09T21:37:21.241Z,6.70
2023-01-09T21:43:03.013Z,6.60
2023-01-09T21:48:25.191Z,6.80
2023-01-09T21:53:47.376Z,6.70
2023-01-09T21:59:10.191Z,6.60
2023-01-09T22:04:33.502Z,6.60
2023-01-09T22:09:56.643Z,6.40
2023-01-09T22:15:18.810Z,6.40
2023-01-09T22:20:41.052Z,6.30
2023-01-09T22:26:11.476Z,6.20
2023-01-09T22:31:34.936Z,6.50
2023-01-09T22:36:57.303Z,6.50
2023-01-09T22:42:19.641Z,6.40
2023-01-09T22:47:41.792Z,6.50
2023-01-09T22:53:04.151Z,6.30
2023-01-09T22:58:28.255Z,6.10
2023-01-09T23:03:50.779Z,6.10
2023-01-09T23:09:12.949Z,6.00
2023-01-09T23:14:37.789Z,6.10
2023-01-09T23:19:59.978Z,6.00
2023-01-09T23:25:22.137Z,5.90
2023-01-09T23:30:44.582Z,5.90
2023-01-09T23:36:06.939Z,5.80
2023-01-09T23:41:49.060Z,5.90
2023-01-09T23:47:11.239Z,5.70
2023-01-09T23:52:33.444Z,5.90
2023-01-09T23:57:55.847Z,5.90
